createdAt,value
2022-08-17T00:01:33.352Z,17.80
2022-08-17T00:04:19.294Z,17.90
2022-08-17T00:06:49.232Z,17.80
2022-08-17T00:09:18.736Z,17.80
2022-08-17T00:12:41.040Z,17.70
2022-08-17T00:14:33.756Z,17.60
2022-08-17T00:17:00.439Z,17.40
2022-08-17T00:19:27.216Z,17.40
2022-08-17T00:22:31.233Z,17.40
2022-08-17T00:24:43.108Z,17.40
2022-08-17T00:27:09.764Z,17.40
2022-08-17T00:29:36.467Z,17.30
2022-08-17T00:33:13.602Z,17.20
2022-08-17T00:34:50.164Z,17.30
2022-08-17T00:37:16.846Z,17.30
2022-08-17T00:39:43.866Z,17.20
2022-08-17T00:42:14.627Z,17.20
2022-08-17T00:44:41.356Z,17.30
2022-08-17T00:47:08.072Z,17.40
2022-08-17T00:49:34.783Z,17.20
2022-08-17T00:52:11.642Z,17.10
2022-08-17T00:54:42.309Z,17.10
2022-08-17T00:57:11.461Z,17.10
2022-08-17T00:59:40.339Z,16.90
2022-08-17T01:02:09.545Z,16.90
2022-08-17T01:04:36.588Z,16.90
2022-08-17T01:07:03.724Z,16.90
2022-08-17T01:09:31.411Z,16.90
2022-08-17T01:11:58.372Z,16.90
2022-08-17T01:14:25.811Z,16.80
2022-08-17T01:16:54.256Z,16.90
2022-08-17T01:19:25.860Z,16.80
2022-08-17T01:21:55.512Z,16.80
2022-08-17T01:24:22.229Z,16.80
2022-08-17T01:26:48.910Z,16.80
2022-08-17T01:29:16.080Z,16.60
2022-08-17T01:31:45.701Z,16.50
2022-08-17T01:34:14.157Z,16.60
2022-08-17T01:36:42.074Z,16.50
2022-08-17T01:39:11.842Z,16.50
2022-08-17T01:41:40.414Z,16.60
2022-08-17T01:44:07.819Z,16.50
2022-08-17T01:46:36.481Z,16.50
2022-08-17T01:49:06.386Z,16.60
2022-08-17T01:51:33.315Z,16.40
2022-08-17T01:54:05.427Z,16.40
2022-08-17T01:56:34.169Z,16.40
2022-08-17T01:59:00.834Z,16.30
2022-08-17T02:01:29.374Z,16.30
2022-08-17T02:04:01.152Z,16.40
2022-08-17T02:06:29.904Z,16.30
2022-08-17T02:08:56.975Z,16.20
2022-08-17T02:11:30.004Z,16.20
2022-08-17T02:14:03.259Z,16.10
2022-08-17T02:16:37.130Z,15.80
2022-08-17T02:19:10.001Z,15.90
2022-08-17T02:21:37.251Z,15.80
2022-08-17T02:24:04.947Z,15.80
2022-08-17T02:26:31.709Z,15.70
2022-08-17T02:28:58.386Z,15.70
2022-08-17T02:31:25.072Z,15.80
2022-08-17T02:33:56.648Z,15.90
2022-08-17T02:36:30.282Z,15.80
2022-08-17T02:38:58.563Z,15.90
2022-08-17T02:41:25.460Z,16.00
2022-08-17T02:43:53.259Z,15.80
2022-08-17T02:46:20.027Z,15.80
2022-08-17T02:48:47.007Z,15.80
2022-08-17T02:51:13.682Z,15.70
2022-08-17T02:53:40.855Z,15.50
2022-08-17T02:56:07.543Z,15.60
2022-08-17T02:58:35.200Z,15.60
2022-08-17T03:01:04.877Z,15.40
2022-08-17T03:03:31.621Z,15.60
2022-08-17T03:05:58.270Z,15.50
2022-08-17T03:08:25.652Z,15.40
2022-08-17T03:10:52.358Z,15.40
2022-08-17T03:13:19.086Z,15.50
2022-08-17T03:15:46.546Z,15.60
2022-08-17T03:18:19.174Z,15.50
2022-08-17T03:20:52.657Z,15.50
2022-08-17T03:23:24.128Z,15.40
2022-08-17T03:25:53.414Z,15.60
2022-08-17T03:28:20.832Z,15.50
2022-08-17T03:30:51.153Z,15.50
2022-08-17T03:33:18.142Z,15.50
2022-08-17T03:35:45.198Z,15.50
2022-08-17T03:38:12.568Z,15.50
2022-08-17T03:40:58.554Z,15.40
2022-08-17T03:43:30.981Z,15.30
2022-08-17T03:46:27.939Z,15.30
2022-08-17T03:49:14.541Z,15.30
2022-08-17T03:52:00.204Z,15.30
2022-08-17T03:54:45.661Z,15.20
2022-08-17T03:57:12.653Z,15.20
2022-08-17T03:59:39.570Z,15.10
2022-08-17T04:02:09.729Z,15.30
2022-08-17T04:04:37.354Z,15.30
2022-08-17T04:07:04.321Z,15.30
2022-08-17T04:09:31.102Z,15.20
2022-08-17T04:12:02.336Z,15.20
2022-08-17T04:14:39.356Z,15.20
2022-08-17T04:17:19.975Z,15.20
2022-08-17T04:19:47.015Z,15.20
2022-08-17T04:22:30.482Z,15.20
2022-08-17T04:24:58.770Z,15.20
2022-08-17T04:27:25.511Z,15.20
2022-08-17T04:29:55.429Z,15.20
2022-08-17T04:33:05.526Z,15.20
2022-08-17T04:35:10.079Z,15.40
2022-08-17T04:37:36.837Z,15.40
2022-08-17T04:40:22.692Z,15.40
2022-08-17T04:43:07.094Z,15.40
2022-08-17T04:45:33.863Z,15.30
2022-08-17T04:48:01.312Z,15.50
2022-08-17T04:50:28.033Z,15.40
2022-08-17T04:52:55.025Z,15.50
2022-08-17T04:55:22.150Z,15.50
2022-08-17T04:57:48.930Z,15.50
2022-08-17T05:00:15.696Z,15.70
2022-08-17T05:02:50.121Z,15.70
2022-08-17T05:05:25.437Z,15.80
2022-08-17T05:07:56.179Z,15.80
2022-08-17T05:10:24.026Z,15.80
2022-08-17T05:12:57.413Z,15.90
2022-08-17T05:15:24.110Z,16.00
2022-08-17T05:17:50.776Z,16.10
2022-08-17T05:20:17.501Z,16.20
2022-08-17T05:22:49.443Z,16.20
2022-08-17T05:25:18.403Z,16.30
2022-08-17T05:27:50.972Z,16.40
2022-08-17T05:30:17.701Z,16.50
2022-08-17T05:32:58.347Z,16.50
2022-08-17T05:35:26.161Z,16.60
2022-08-17T05:37:53.479Z,16.70
2022-08-17T05:40:23.885Z,16.70
2022-08-17T05:42:50.717Z,17.00
2022-08-17T05:45:39.955Z,17.00
2022-08-17T05:48:07.307Z,17.00
2022-08-17T05:50:49.387Z,17.10
2022-08-17T05:53:25.335Z,17.10
2022-08-17T05:56:29.124Z,17.40
2022-08-17T05:59:12.500Z,17.50
2022-08-17T06:01:58.077Z,17.60
2022-08-17T06:04:56.985Z,17.70
2022-08-17T06:07:32.509Z,17.80
2022-08-17T06:10:17.201Z,18.00
2022-08-17T06:13:02.553Z,18.10
2022-08-17T06:15:47.971Z,18.20
2022-08-17T06:18:18.925Z,18.40
2022-08-17T06:20:50.390Z,18.50
2022-08-17T06:23:21.352Z,18.60
2022-08-17T06:25:49.695Z,18.70
2022-08-17T06:28:24.300Z,18.80
2022-08-17T06:30:59.922Z,18.80
2022-08-17T06:33:32.754Z,19.00
2022-08-17T06:36:09.629Z,19.00
2022-08-17T06:38:50.032Z,19.10
2022-08-17T06:41:29.816Z,19.20
2022-08-17T06:43:59.287Z,19.30
2022-08-17T06:46:40.557Z,19.40
2022-08-17T06:49:10.599Z,19.40
2022-08-17T06:51:49.559Z,19.60
2022-08-17T06:54:16.178Z,19.70
2022-08-17T06:56:59.583Z,19.80
2022-08-17T06:59:53.177Z,19.80
2022-08-17T07:02:29.122Z,19.90
2022-08-17T07:05:15.522Z,19.90
2022-08-17T07:08:02.552Z,20.00
2022-08-17T07:10:32.195Z,20.00
2022-08-17T07:13:03.003Z,20.10
2022-08-17T07:15:39.752Z,20.10
2022-08-17T07:18:06.402Z,20.20
2022-08-17T07:20:33.736Z,20.30
2022-08-17T07:23:07.057Z,20.40
2022-08-17T07:25:33.737Z,20.50
2022-08-17T07:28:02.460Z,20.60
2022-08-17T07:30:46.865Z,20.70
2022-08-17T07:33:33.332Z,20.80
2022-08-17T07:36:02.363Z,20.80
2022-08-17T07:38:33.244Z,20.90
2022-08-17T07:41:01.520Z,21.00
2022-08-17T07:43:31.183Z,21.10
2022-08-17T07:46:35.865Z,21.20
2022-08-17T07:49:07.668Z,21.30
2022-08-17T07:52:00.489Z,21.40
2022-08-17T07:54:48.351Z,21.50
2022-08-17T07:57:15.078Z,21.60
2022-08-17T07:59:43.344Z,21.60
2022-08-17T08:02:17.105Z,21.60
2022-08-17T08:05:02.383Z,21.80
2022-08-17T08:07:37.361Z,21.90
2022-08-17T08:10:09.888Z,22.20
2022-08-17T08:12:41.085Z,22.30
2022-08-17T08:15:14.013Z,22.40
2022-08-17T08:17:57.595Z,22.50
2022-08-17T08:20:52.497Z,22.70
2022-08-17T08:23:26.650Z,22.80
2022-08-17T08:26:00.423Z,22.80
2022-08-17T08:28:34.482Z,23.00
2022-08-17T08:31:12.854Z,23.00
2022-08-17T08:33:44.464Z,23.10
2022-08-17T08:36:59.283Z,23.20
2022-08-17T08:39:16.022Z,23.10
2022-08-17T08:41:45.586Z,23.10
2022-08-17T08:44:59.769Z,23.00
2022-08-17T08:47:35.396Z,23.10
2022-08-17T08:50:08.491Z,23.20
2022-08-17T08:53:14.384Z,23.20
2022-08-17T08:55:55.778Z,23.20
2022-08-17T08:58:41.821Z,23.30
2022-08-17T09:01:16.706Z,23.30
2022-08-17T09:03:52.913Z,23.40
2022-08-17T09:06:33.623Z,23.40
2022-08-17T09:09:18.536Z,23.40
2022-08-17T09:12:01.766Z,23.50
2022-08-17T09:14:43.057Z,23.50
2022-08-17T09:17:16.436Z,23.60
2022-08-17T09:19:46.216Z,23.70
2022-08-17T09:22:31.795Z,23.70
2022-08-17T09:25:08.515Z,23.80
2022-08-17T09:27:42.965Z,23.90
2022-08-17T09:30:10.887Z,23.90
2022-08-17T09:32:45.862Z,23.90
2022-08-17T09:35:22.841Z,23.90
2022-08-17T09:38:08.249Z,23.80
2022-08-17T09:40:41.094Z,23.90
2022-08-17T09:43:22.021Z,24.00
2022-08-17T09:45:54.419Z,24.10
2022-08-17T09:48:25.672Z,24.10
2022-08-17T09:51:05.379Z,24.10
2022-08-17T09:53:34.016Z,24.10
2022-08-17T09:56:00.680Z,24.20
2022-08-17T09:58:37.348Z,24.30
2022-08-17T10:01:11.934Z,24.40
2022-08-17T10:03:41.662Z,24.60
2022-08-17T10:06:21.770Z,24.80
2022-08-17T10:08:55.015Z,24.90
2022-08-17T10:11:52.641Z,24.80
2022-08-17T10:14:37.887Z,24.70
2022-08-17T10:17:20.450Z,24.70
2022-08-17T10:19:53.861Z,24.70
2022-08-17T10:22:44.375Z,24.80
2022-08-17T10:25:53.569Z,24.90
2022-08-17T10:28:25.856Z,25.00
2022-08-17T10:31:16.710Z,25.20
2022-08-17T10:33:55.705Z,25.30
2022-08-17T10:36:26.955Z,25.30
2022-08-17T10:39:13.983Z,25.40
2022-08-17T10:41:47.258Z,25.50
2022-08-17T10:44:39.756Z,25.40
2022-08-17T10:47:07.699Z,25.30
2022-08-17T10:49:35.958Z,25.30
2022-08-17T10:52:24.960Z,25.40
2022-08-17T10:54:51.856Z,25.50
2022-08-17T10:57:34.412Z,25.70
2022-08-17T11:00:15.506Z,25.70
2022-08-17T11:02:49.849Z,25.50
2022-08-17T11:05:16.739Z,25.60
2022-08-17T11:08:05.383Z,25.60
2022-08-17T11:10:42.963Z,25.70
2022-08-17T11:13:28.481Z,25.70
2022-08-17T11:16:08.989Z,25.80
2022-08-17T11:18:35.857Z,25.90
2022-08-17T11:21:14.570Z,25.80
2022-08-17T11:24:05.094Z,25.90
2022-08-17T11:26:33.479Z,25.90
2022-08-17T11:29:05.349Z,25.90
2022-08-17T11:31:41.155Z,26.00
2022-08-17T11:34:13.954Z,26.00
2022-08-17T11:36:50.574Z,25.90
2022-08-17T11:39:23.081Z,25.90
2022-08-17T11:41:56.612Z,25.90
2022-08-17T11:44:23.235Z,25.90
2022-08-17T11:47:12.004Z,25.80
2022-08-17T11:50:00.559Z,25.90
2022-08-17T11:52:46.979Z,25.90
2022-08-17T11:55:35.678Z,25.90
2022-08-17T11:58:22.836Z,25.80
2022-08-17T12:00:52.486Z,25.90
2022-08-17T12:03:24.891Z,26.00
2022-08-17T12:06:01.069Z,26.10
2022-08-17T12:08:29.403Z,26.10
2022-08-17T12:10:58.773Z,26.20
2022-08-17T12:13:30.587Z,26.40
2022-08-17T12:16:05.381Z,26.50
2022-08-17T12:18:35.929Z,26.70
2022-08-17T12:21:02.602Z,26.70
2022-08-17T12:23:50.240Z,26.80
2022-08-17T12:26:21.888Z,26.70
2022-08-17T12:28:49.915Z,26.70
2022-08-17T12:31:21.742Z,26.80
2022-08-17T12:33:51.832Z,27.00
2022-08-17T12:36:26.056Z,27.20
2022-08-17T12:38:59.669Z,27.30
2022-08-17T12:41:41.737Z,27.30
2022-08-17T12:44:12.192Z,27.30
2022-08-17T12:46:58.814Z,27.20
2022-08-17T12:49:33.183Z,27.20
2022-08-17T12:52:05.859Z,27.00
2022-08-17T12:54:35.425Z,27.00
2022-08-17T12:57:06.201Z,27.00
2022-08-17T12:59:33.407Z,27.00
2022-08-17T13:02:00.631Z,27.00
2022-08-17T13:04:29.663Z,26.90
2022-08-17T13:06:58.179Z,26.90
2022-08-17T13:09:36.019Z,26.70
2022-08-17T13:12:07.392Z,26.60
2022-08-17T13:14:35.189Z,26.70
2022-08-17T13:17:06.285Z,26.80
2022-08-17T13:19:40.759Z,26.80
2022-08-17T13:22:10.724Z,26.70
2022-08-17T13:24:37.864Z,26.70
2022-08-17T13:27:08.518Z,26.70
2022-08-17T13:29:35.333Z,26.70
2022-08-17T13:32:07.907Z,26.90
2022-08-17T13:34:48.967Z,27.00
2022-08-17T13:37:34.314Z,27.00
2022-08-17T13:40:10.261Z,27.00
2022-08-17T13:42:51.822Z,27.00
2022-08-17T13:45:32.193Z,27.00
2022-08-17T13:48:10.919Z,26.90
2022-08-17T13:50:45.082Z,26.90
2022-08-17T13:53:25.606Z,26.80
2022-08-17T13:55:52.333Z,26.70
2022-08-17T13:58:28.128Z,26.70
2022-08-17T14:00:56.282Z,26.70
2022-08-17T14:03:23.113Z,26.70
2022-08-17T14:05:50.751Z,26.80
2022-08-17T14:08:18.933Z,26.90
2022-08-17T14:10:48.962Z,26.80
2022-08-17T14:13:15.679Z,26.80
2022-08-17T14:15:55.102Z,26.70
2022-08-17T14:18:50.539Z,26.70
2022-08-17T14:21:10.102Z,26.70
2022-08-17T14:23:37.007Z,26.70
2022-08-17T14:26:04.217Z,26.80
2022-08-17T14:28:30.945Z,26.80
2022-08-17T14:31:00.369Z,26.80
2022-08-17T14:33:28.203Z,26.80
2022-08-17T14:35:56.021Z,26.90
2022-08-17T14:38:22.778Z,26.90
2022-08-17T14:40:49.532Z,27.00
2022-08-17T14:43:16.426Z,27.20
2022-08-17T14:45:43.268Z,27.20
2022-08-17T14:48:10.371Z,27.20
2022-08-17T14:50:38.388Z,27.10
2022-08-17T14:53:06.318Z,27.10
2022-08-17T14:55:33.259Z,27.20
2022-08-17T14:57:59.960Z,27.20
2022-08-17T15:00:27.035Z,27.20
2022-08-17T15:02:54.895Z,27.30
2022-08-17T15:05:23.362Z,27.30
2022-08-17T15:07:50.221Z,27.30
2022-08-17T15:10:17.710Z,27.20
2022-08-17T15:12:44.697Z,27.20
2022-08-17T15:15:14.052Z,27.30
2022-08-17T15:17:45.186Z,27.40
2022-08-17T15:20:27.928Z,27.50
2022-08-17T15:22:55.758Z,27.60
2022-08-17T15:25:23.275Z,27.70
2022-08-17T15:27:50.182Z,27.80
2022-08-17T15:30:17.085Z,27.80
2022-08-17T15:32:45.765Z,27.90
2022-08-17T15:35:26.960Z,28.00
2022-08-17T15:38:11.166Z,28.00
2022-08-17T15:40:40.867Z,28.10
2022-08-17T15:43:08.527Z,28.20
2022-08-17T15:45:35.391Z,28.30
2022-08-17T15:48:02.368Z,28.30
2022-08-17T15:50:29.093Z,28.30
2022-08-17T15:52:59.737Z,28.20
2022-08-17T15:55:28.178Z,28.00
2022-08-17T15:57:54.855Z,27.90
2022-08-17T16:00:24.070Z,27.80
2022-08-17T16:03:14.515Z,27.80
2022-08-17T16:05:37.651Z,27.80
2022-08-17T16:08:07.409Z,27.90
2022-08-17T16:10:35.743Z,28.00
2022-08-17T16:13:03.542Z,28.00
2022-08-17T16:15:33.629Z,27.90
2022-08-17T16:18:00.345Z,27.80
2022-08-17T16:20:27.423Z,27.80
2022-08-17T16:22:54.836Z,27.80
2022-08-17T16:25:38.849Z,27.80
2022-08-17T16:28:11.352Z,27.70
2022-08-17T16:30:38.329Z,27.70
2022-08-17T16:33:05.552Z,27.60
2022-08-17T16:35:32.302Z,27.50
2022-08-17T16:37:59.088Z,27.40
2022-08-17T16:40:27.655Z,27.40
2022-08-17T16:42:55.259Z,27.30
2022-08-17T16:45:25.968Z,27.20
2022-08-17T16:47:54.518Z,27.20
2022-08-17T16:50:22.476Z,27.20
2022-08-17T16:52:50.065Z,27.20
2022-08-17T16:55:18.232Z,27.10
2022-08-17T16:57:47.388Z,27.00
2022-08-17T17:00:17.613Z,26.90
2022-08-17T17:02:49.649Z,26.80
2022-08-17T17:05:28.512Z,26.60
2022-08-17T17:07:58.514Z,26.40
2022-08-17T17:10:28.703Z,26.30
2022-08-17T17:13:03.651Z,26.10
2022-08-17T17:15:51.901Z,25.90
2022-08-17T17:18:20.021Z,25.80
2022-08-17T17:20:52.053Z,25.80
2022-08-17T17:23:28.913Z,25.70
2022-08-17T17:25:55.539Z,25.70
2022-08-17T17:28:42.714Z,25.70
2022-08-17T17:31:12.129Z,25.60
2022-08-17T17:33:42.820Z,25.40
2022-08-17T17:36:24.467Z,25.30
2022-08-17T17:39:05.522Z,25.10
2022-08-17T17:41:51.184Z,25.00
2022-08-17T17:44:20.032Z,24.80
2022-08-17T17:46:52.124Z,24.60
2022-08-17T17:49:19.114Z,24.50
2022-08-17T17:52:07.658Z,24.40
2022-08-17T17:54:37.883Z,24.30
2022-08-17T17:57:15.368Z,24.20
2022-08-17T17:59:49.310Z,24.10
2022-08-17T18:02:44.390Z,24.00
2022-08-17T18:05:18.173Z,23.90
2022-08-17T18:07:50.804Z,23.80
2022-08-17T18:10:30.340Z,23.70
2022-08-17T18:13:08.058Z,23.60
2022-08-17T18:15:50.946Z,23.40
2022-08-17T18:18:17.758Z,23.40
2022-08-17T18:20:54.069Z,23.20
2022-08-17T18:23:28.066Z,23.10
2022-08-17T18:25:56.065Z,23.00
2022-08-17T18:28:27.002Z,23.00
2022-08-17T18:31:02.926Z,22.90
2022-08-17T18:33:29.613Z,22.80
2022-08-17T18:35:58.559Z,22.70
2022-08-17T18:38:31.338Z,22.60
2022-08-17T18:40:59.988Z,22.60
2022-08-17T18:43:43.767Z,22.30
2022-08-17T18:46:28.672Z,22.40
2022-08-17T18:49:00.532Z,22.30
2022-08-17T18:51:41.851Z,22.20
2022-08-17T18:54:21.194Z,22.10
2022-08-17T18:56:55.650Z,22.10
2022-08-17T18:59:27.580Z,22.00
2022-08-17T19:01:59.308Z,21.90
2022-08-17T19:04:33.880Z,21.90
2022-08-17T19:07:07.054Z,21.80
2022-08-17T19:09:35.603Z,21.70
2022-08-17T19:12:04.665Z,21.50
2022-08-17T19:14:31.573Z,21.60
2022-08-17T19:17:02.782Z,21.50
2022-08-17T19:19:35.619Z,21.50
2022-08-17T19:22:28.678Z,21.40
2022-08-17T19:25:05.858Z,21.40
2022-08-17T19:27:41.812Z,21.40
2022-08-17T19:30:13.789Z,21.30
2022-08-17T19:32:40.900Z,21.30
2022-08-17T19:35:11.406Z,21.20
2022-08-17T19:37:56.979Z,21.20
2022-08-17T19:40:49.013Z,21.20
2022-08-17T19:43:28.830Z,21.10
2022-08-17T19:46:02.325Z,21.00
2022-08-17T19:48:29.098Z,21.00
2022-08-17T19:51:10.356Z,20.90
2022-08-17T19:54:04.281Z,20.80
2022-08-17T19:56:31.719Z,20.70
2022-08-17T19:59:03.642Z,20.70
2022-08-17T20:01:35.929Z,20.70
2022-08-17T20:04:08.802Z,20.60
2022-08-17T20:06:37.505Z,20.50
2022-08-17T20:09:14.995Z,20.60
2022-08-17T20:11:46.653Z,20.50
2022-08-17T20:14:15.048Z,20.50
2022-08-17T20:16:41.964Z,20.50
2022-08-17T20:19:14.713Z,20.40
2022-08-17T20:21:44.561Z,20.40
2022-08-17T20:24:11.192Z,20.50
2022-08-17T20:26:57.218Z,20.40
2022-08-17T20:29:37.614Z,20.50
2022-08-17T20:32:17.398Z,20.50
2022-08-17T20:34:45.506Z,20.50
2022-08-17T20:37:14.941Z,20.50
2022-08-17T20:40:05.129Z,20.50
2022-08-17T20:42:33.965Z,20.50
2022-08-17T20:45:05.634Z,20.60
2022-08-17T20:47:34.841Z,20.50
2022-08-17T20:50:12.998Z,20.50
2022-08-17T20:52:45.899Z,20.30
2022-08-17T20:55:52.009Z,20.20
2022-08-17T20:58:21.204Z,20.10
2022-08-17T21:01:09.555Z,19.90
2022-08-17T21:03:50.542Z,19.90
2022-08-17T21:06:20.707Z,19.80
2022-08-17T21:08:57.630Z,19.70
2022-08-17T21:11:57.211Z,19.60
2022-08-17T21:14:31.630Z,19.60
2022-08-17T21:17:04.924Z,19.60
2022-08-17T21:19:44.367Z,19.60
2022-08-17T21:22:32.028Z,19.50
2022-08-17T21:25:04.218Z,19.40
2022-08-17T21:27:40.491Z,19.40
2022-08-17T21:30:10.006Z,19.40
2022-08-17T21:32:38.015Z,19.40
2022-08-17T21:35:09.464Z,19.40
2022-08-17T21:37:42.131Z,19.30
2022-08-17T21:40:18.239Z,19.40
2022-08-17T21:42:46.807Z,19.40
2022-08-17T21:45:19.680Z,19.30
2022-08-17T21:47:50.671Z,19.30
2022-08-17T21:50:23.964Z,19.30
2022-08-17T21:52:54.126Z,19.30
2022-08-17T21:55:28.388Z,19.20
2022-08-17T21:58:14.569Z,19.10
2022-08-17T22:00:44.450Z,19.10
2022-08-17T22:03:28.682Z,19.10
2022-08-17T22:05:56.751Z,19.10
2022-08-17T22:08:24.907Z,19.00
2022-08-17T22:10:59.289Z,18.90
2022-08-17T22:13:29.696Z,18.90
2022-08-17T22:16:27.647Z,18.80
2022-08-17T22:18:53.741Z,18.80
2022-08-17T22:21:22.432Z,18.80
2022-08-17T22:24:21.406Z,18.80
2022-08-17T22:26:59.682Z,18.70
2022-08-17T22:29:45.235Z,18.70
2022-08-17T22:32:29.505Z,18.60
2022-08-17T22:35:15.016Z,18.50
2022-08-17T22:37:41.744Z,18.50
2022-08-17T22:40:08.746Z,18.60
2022-08-17T22:42:47.719Z,18.70
2022-08-17T22:45:15.045Z,18.80
2022-08-17T22:47:48.885Z,18.80
2022-08-17T22:50:26.031Z,18.80
2022-08-17T22:53:16.415Z,18.90
2022-08-17T22:56:09.167Z,18.90
2022-08-17T22:59:00.292Z,18.90
2022-08-17T23:01:32.551Z,18.80
2022-08-17T23:04:04.721Z,18.90
2022-08-17T23:06:34.645Z,18.90
2022-08-17T23:09:03.890Z,19.00
2022-08-17T23:11:36.911Z,19.00
2022-08-17T23:14:17.454Z,18.90
2022-08-17T23:16:44.210Z,18.80
2022-08-17T23:19:11.766Z,18.80
2022-08-17T23:21:38.555Z,18.80
2022-08-17T23:24:06.854Z,18.70
2022-08-17T23:26:35.995Z,18.70
2022-08-17T23:29:04.494Z,18.60
2022-08-17T23:31:37.735Z,18.60
2022-08-17T23:34:05.362Z,18.60
2022-08-17T23:36:36.101Z,18.60
2022-08-17T23:39:03.663Z,18.60
2022-08-17T23:41:32.923Z,18.60
2022-08-17T23:44:00.142Z,18.60
2022-08-17T23:46:26.818Z,18.50
2022-08-17T23:48:54.143Z,18.50
2022-08-17T23:51:26.530Z,18.50
2022-08-17T23:53:55.656Z,18.50
2022-08-17T23:56:25.740Z,18.40
2022-08-17T23:58:53.420Z,18.40
